createdAt,value
2019-04-04T00:00:10.357Z,47.30
2019-04-04T00:01:22.847Z,47.60
2019-04-04T00:02:28.111Z,47.80
2019-04-04T00:03:33.040Z,48.30
2019-04-04T00:04:37.849Z,47.80
2019-04-04T00:05:42.740Z,47.80
2019-04-04T00:06:47.849Z,48.40
2019-04-04T00:07:52.818Z,48.00
2019-04-04T00:08:57.691Z,47.90
2019-04-04T00:10:04.116Z,48.20
2019-04-04T00:11:09.757Z,48.00
2019-04-04T00:12:14.818Z,47.90
2019-04-04T00:13:19.862Z,48.00
2019-04-04T00:14:24.848Z,47.80
2019-04-04T00:15:29.757Z,47.60
2019-04-04T00:16:34.700Z,47.70
2019-04-04T00:17:39.708Z,48.00
2019-04-04T00:18:44.662Z,48.10
2019-04-04T00:19:49.531Z,48.00
2019-04-04T00:20:54.728Z,47.40
2019-04-04T00:21:59.782Z,47.80
2019-04-04T00:23:05.019Z,47.40
2019-04-04T00:24:12.028Z,47.30
2019-04-04T00:25:17.220Z,48.30
2019-04-04T00:26:22.474Z,47.40
2019-04-04T00:27:27.637Z,47.50
2019-04-04T00:28:32.732Z,47.50
2019-04-04T00:29:37.893Z,47.60
2019-04-04T00:30:42.885Z,47.80
2019-04-04T00:31:49.555Z,48.10
2019-04-04T00:32:54.562Z,47.70
2019-04-04T00:33:59.460Z,48.00
2019-04-04T00:35:04.461Z,48.20
2019-04-04T00:36:09.528Z,48.10
2019-04-04T00:37:14.369Z,48.10
2019-04-04T00:38:19.531Z,48.30
2019-04-04T00:39:24.570Z,48.70
2019-04-04T00:40:29.425Z,48.60
2019-04-04T00:41:34.472Z,48.20
2019-04-04T00:42:39.539Z,48.80
2019-04-04T00:43:44.556Z,48.90
2019-04-04T00:44:49.434Z,48.20
2019-04-04T00:45:54.602Z,49.10
2019-04-04T00:47:01.545Z,48.80
2019-04-04T00:48:06.228Z,48.70
2019-04-04T00:49:11.344Z,48.50
2019-04-04T00:50:16.518Z,48.30
2019-04-04T00:51:21.604Z,48.50
2019-04-04T00:52:26.454Z,48.60
2019-04-04T00:53:31.308Z,48.80
2019-04-04T00:54:36.360Z,48.60
2019-04-04T00:55:41.236Z,48.50
2019-04-04T00:56:46.908Z,48.60
2019-04-04T00:57:52.704Z,48.60
2019-04-04T00:58:57.714Z,49.00
2019-04-04T01:00:02.669Z,48.70
2019-04-04T01:01:07.525Z,48.80
2019-04-04T01:02:12.440Z,49.10
2019-04-04T01:03:17.352Z,48.80
2019-04-04T01:04:22.316Z,48.80
2019-04-04T01:05:27.285Z,48.70
2019-04-04T01:06:33.739Z,48.70
2019-04-04T01:07:38.664Z,48.50
2019-04-04T01:08:43.543Z,48.50
2019-04-04T01:09:48.490Z,48.80
2019-04-04T01:10:53.436Z,48.90
2019-04-04T01:11:58.245Z,48.90
2019-04-04T01:13:03.052Z,48.70
2019-04-04T01:14:08.205Z,49.30
2019-04-04T01:15:13.453Z,49.30
2019-04-04T01:16:18.372Z,49.20
2019-04-04T01:17:42.231Z,49.20
2019-04-04T01:18:47.313Z,49.00
2019-04-04T01:19:52.341Z,49.20
2019-04-04T01:20:57.367Z,49.50
2019-04-04T01:22:02.372Z,49.20
2019-04-04T01:23:07.570Z,49.30
2019-04-04T01:24:12.616Z,49.50
2019-04-04T01:25:17.713Z,49.10
2019-04-04T01:26:22.517Z,49.10
2019-04-04T01:27:27.436Z,49.70
2019-04-04T01:28:32.374Z,49.70
2019-04-04T01:29:38.985Z,49.00
2019-04-04T01:30:44.164Z,48.80
2019-04-04T01:31:49.305Z,48.80
2019-04-04T01:32:54.177Z,49.20
2019-04-04T01:33:59.090Z,49.30
2019-04-04T01:35:04.023Z,49.50
2019-04-04T01:36:09.106Z,49.30
2019-04-04T01:37:14.130Z,49.10
2019-04-04T01:38:18.975Z,49.30
2019-04-04T01:39:24.003Z,49.50
2019-04-04T01:40:28.916Z,49.30
2019-04-04T01:41:35.977Z,49.60
2019-04-04T01:42:40.705Z,49.90
2019-04-04T01:43:45.588Z,50.10
2019-04-04T01:44:50.418Z,50.30
2019-04-04T01:45:55.363Z,50.10
2019-04-04T01:47:00.245Z,49.80
2019-04-04T01:48:05.247Z,50.10
2019-04-04T01:49:10.200Z,49.90
2019-04-04T01:50:15.232Z,49.90
2019-04-04T01:51:20.133Z,50.00
2019-04-04T01:52:27.907Z,50.70
2019-04-04T01:53:31.865Z,50.00
2019-04-04T01:54:36.895Z,50.50
2019-04-04T01:55:41.648Z,50.60
2019-04-04T01:56:46.882Z,50.80
2019-04-04T01:57:51.792Z,50.40
2019-04-04T01:58:56.710Z,50.40
2019-04-04T02:00:02.700Z,50.30
2019-04-04T02:01:07.595Z,50.20
2019-04-04T02:02:12.498Z,50.50
2019-04-04T02:03:17.388Z,50.40
2019-04-04T02:04:24.565Z,50.30
2019-04-04T02:05:28.805Z,51.00
2019-04-04T02:06:33.736Z,50.50
2019-04-04T02:07:38.748Z,50.60
2019-04-04T02:08:43.547Z,50.40
2019-04-04T02:09:48.469Z,50.50
2019-04-04T02:10:53.546Z,50.40
2019-04-04T02:11:58.477Z,50.60
2019-04-04T02:13:03.299Z,50.60
2019-04-04T02:14:09.874Z,50.90
2019-04-04T02:15:15.099Z,50.70
2019-04-04T02:16:20.064Z,50.60
2019-04-04T02:17:24.900Z,50.80
2019-04-04T02:18:29.842Z,50.70
2019-04-04T02:19:34.933Z,50.70
2019-04-04T02:20:39.864Z,51.00
2019-04-04T02:21:44.804Z,50.80
2019-04-04T02:22:49.620Z,50.80
2019-04-04T02:23:54.428Z,51.20
2019-04-04T02:25:02.816Z,51.10
2019-04-04T02:26:05.954Z,51.20
2019-04-04T02:27:10.792Z,50.90
2019-04-04T02:28:15.820Z,51.40
2019-04-04T02:29:20.724Z,51.30
2019-04-04T02:30:25.632Z,51.30
2019-04-04T02:31:33.470Z,51.10
2019-04-04T02:32:38.387Z,51.30
2019-04-04T02:33:43.333Z,51.40
2019-04-04T02:34:48.280Z,51.10
2019-04-04T02:35:53.190Z,51.60
2019-04-04T02:36:58.202Z,51.50
2019-04-04T02:38:03.054Z,51.30
2019-04-04T02:39:10.988Z,51.10
2019-04-04T02:40:16.174Z,51.40
2019-04-04T02:41:21.168Z,51.30
2019-04-04T02:42:28.150Z,51.50
2019-04-04T02:43:32.724Z,51.40
2019-04-04T02:44:37.703Z,51.30
2019-04-04T02:45:42.628Z,51.00
2019-04-04T02:46:47.581Z,51.20
2019-04-04T02:47:52.414Z,51.10
2019-04-04T02:48:57.594Z,51.10
2019-04-04T02:50:02.494Z,51.20
2019-04-04T02:51:08.297Z,51.10
2019-04-04T02:52:14.201Z,51.30
2019-04-04T02:53:20.322Z,51.70
2019-04-04T02:54:25.804Z,51.50
2019-04-04T02:55:31.221Z,51.50
2019-04-04T02:56:36.430Z,51.40
2019-04-04T02:57:42.468Z,51.60
2019-04-04T02:58:47.920Z,51.50
2019-04-04T02:59:54.153Z,51.60
2019-04-04T03:01:00.483Z,51.80
2019-04-04T03:02:06.191Z,51.50
2019-04-04T03:03:11.204Z,51.60
2019-04-04T03:04:16.117Z,52.10
2019-04-04T03:05:20.985Z,52.00
2019-04-04T03:06:25.934Z,51.50
2019-04-04T03:07:31.209Z,51.70
2019-04-04T03:08:37.681Z,51.60
2019-04-04T03:09:43.776Z,51.60
2019-04-04T03:10:49.557Z,51.20
2019-04-04T03:11:54.789Z,51.60
2019-04-04T03:12:59.650Z,51.90
2019-04-04T03:14:04.975Z,51.60
2019-04-04T03:15:10.281Z,51.40
2019-04-04T03:16:15.327Z,51.30
2019-04-04T03:17:20.276Z,51.30
2019-04-04T03:18:25.208Z,51.20
2019-04-04T03:19:30.045Z,51.70
2019-04-04T03:20:34.831Z,51.20
2019-04-04T03:21:39.752Z,51.50
2019-04-04T03:22:44.594Z,51.10
2019-04-04T03:23:49.515Z,51.10
2019-04-04T03:24:54.551Z,51.50
2019-04-04T03:25:59.674Z,51.30
2019-04-04T03:27:04.897Z,51.10
2019-04-04T03:28:09.852Z,51.40
2019-04-04T03:29:14.924Z,51.00
2019-04-04T03:30:19.896Z,50.80
2019-04-04T03:31:24.879Z,51.00
2019-04-04T03:32:29.888Z,51.40
2019-04-04T03:33:34.766Z,51.40
2019-04-04T03:34:47.790Z,51.40
2019-04-04T03:35:46.469Z,51.20
2019-04-04T03:36:51.334Z,51.50
2019-04-04T03:37:56.399Z,51.30
2019-04-04T03:39:01.380Z,51.20
2019-04-04T03:40:06.865Z,51.20
2019-04-04T03:41:11.909Z,51.30
2019-04-04T03:42:16.919Z,51.30
2019-04-04T03:43:21.864Z,51.40
2019-04-04T03:44:26.675Z,51.50
2019-04-04T03:45:31.617Z,51.10
2019-04-04T03:46:38.748Z,51.60
2019-04-04T03:47:44.446Z,51.60
2019-04-04T03:48:51.042Z,51.50
2019-04-04T03:49:57.499Z,52.20
2019-04-04T03:51:04.886Z,51.70
2019-04-04T03:52:11.365Z,51.70
2019-04-04T03:53:17.454Z,51.60
2019-04-04T03:54:25.654Z,51.50
2019-04-04T03:55:30.548Z,51.80
2019-04-04T03:56:39.122Z,51.60
2019-04-04T03:57:42.266Z,51.50
2019-04-04T03:58:47.144Z,51.90
2019-04-04T03:59:52.177Z,51.90
2019-04-04T04:00:57.183Z,51.70
2019-04-04T04:02:02.616Z,51.90
2019-04-04T04:03:07.471Z,51.90
2019-04-04T04:04:12.672Z,52.30
2019-04-04T04:05:26.323Z,52.30
2019-04-04T04:06:31.285Z,52.20
2019-04-04T04:07:36.245Z,52.10
2019-04-04T04:08:41.416Z,52.20
2019-04-04T04:09:46.445Z,52.50
2019-04-04T04:10:51.505Z,52.10
2019-04-04T04:11:56.847Z,52.60
2019-04-04T04:13:01.848Z,52.60
2019-04-04T04:14:06.804Z,52.60
2019-04-04T04:15:11.896Z,52.40
2019-04-04T04:16:16.883Z,53.00
2019-04-04T04:17:21.900Z,52.60
2019-04-04T04:18:26.839Z,52.90
2019-04-04T04:19:32.220Z,53.00
2019-04-04T04:20:37.886Z,53.10
2019-04-04T04:21:43.868Z,53.00
2019-04-04T04:22:51.070Z,52.90
2019-04-04T04:23:56.977Z,53.10
2019-04-04T04:25:03.646Z,53.10
2019-04-04T04:26:09.895Z,53.30
2019-04-04T04:27:15.757Z,52.80
2019-04-04T04:28:21.121Z,53.30
2019-04-04T04:29:29.565Z,53.10
2019-04-04T04:30:32.449Z,53.60
2019-04-04T04:31:37.484Z,53.20
2019-04-04T04:32:42.517Z,53.30
2019-04-04T04:33:47.747Z,53.00
2019-04-04T04:34:52.848Z,53.50
2019-04-04T04:35:57.736Z,53.30
2019-04-04T04:37:02.669Z,53.60
2019-04-04T04:38:07.936Z,53.80
2019-04-04T04:39:12.796Z,54.00
2019-04-04T04:40:17.808Z,53.70
2019-04-04T04:41:22.689Z,54.30
2019-04-04T04:42:27.731Z,54.40
2019-04-04T04:43:33.743Z,54.00
2019-04-04T04:44:39.049Z,54.10
2019-04-04T04:45:44.499Z,54.30
2019-04-04T04:46:51.084Z,53.60
2019-04-04T04:47:57.405Z,53.90
2019-04-04T04:49:03.336Z,54.20
2019-04-04T04:50:09.984Z,54.50
2019-04-04T04:51:15.036Z,54.40
2019-04-04T04:52:19.873Z,54.30
2019-04-04T04:53:25.042Z,55.00
2019-04-04T04:54:30.147Z,54.60
2019-04-04T04:55:35.070Z,54.30
2019-04-04T04:56:40.044Z,54.20
2019-04-04T04:57:45.034Z,54.50
2019-04-04T04:58:50.316Z,54.30
2019-04-04T04:59:56.232Z,54.80
2019-04-04T05:01:01.384Z,54.90
2019-04-04T05:02:06.589Z,54.80
2019-04-04T05:03:11.769Z,54.80
2019-04-04T05:04:16.768Z,54.80
2019-04-04T05:05:21.706Z,54.90
2019-04-04T05:06:26.659Z,54.80
2019-04-04T05:07:31.840Z,54.90
2019-04-04T05:08:36.798Z,54.90
2019-04-04T05:09:43.049Z,54.80
2019-04-04T05:10:48.585Z,55.20
2019-04-04T05:11:53.559Z,55.00
2019-04-04T05:12:59.121Z,54.80
2019-04-04T05:14:04.208Z,55.10
2019-04-04T05:15:09.952Z,55.00
2019-04-04T05:16:14.859Z,54.90
2019-04-04T05:17:20.348Z,54.60
2019-04-04T05:18:25.331Z,54.60
2019-04-04T05:19:30.490Z,54.70
2019-04-04T05:20:35.735Z,55.00
2019-04-04T05:21:41.046Z,55.40
2019-04-04T05:22:46.318Z,55.00
2019-04-04T05:23:51.912Z,54.60
2019-04-04T05:25:08.119Z,54.50
2019-04-04T05:26:05.543Z,54.90
2019-04-04T05:27:11.816Z,54.80
2019-04-04T05:28:16.929Z,54.10
2019-04-04T05:29:21.864Z,53.80
2019-04-04T05:30:27.020Z,54.20
2019-04-04T05:31:31.872Z,54.60
2019-04-04T05:32:37.137Z,55.50
2019-04-04T05:33:42.055Z,55.30
2019-04-04T05:34:47.519Z,54.90
2019-04-04T05:35:52.723Z,54.60
2019-04-04T05:36:57.864Z,54.80
2019-04-04T05:38:04.393Z,54.60
2019-04-04T05:39:09.972Z,54.30
2019-04-04T05:40:15.536Z,53.90
2019-04-04T05:41:20.829Z,54.30
2019-04-04T05:42:25.762Z,54.80
2019-04-04T05:43:31.044Z,54.20
2019-04-04T05:44:36.155Z,54.60
2019-04-04T05:45:44.948Z,54.40
2019-04-04T05:46:51.166Z,54.40
2019-04-04T05:47:58.275Z,54.90
2019-04-04T05:49:07.708Z,54.60
2019-04-04T05:50:11.351Z,54.60
2019-04-04T05:51:17.150Z,54.90
2019-04-04T05:52:22.030Z,55.00
2019-04-04T05:53:27.231Z,55.00
2019-04-04T05:54:32.359Z,55.20
2019-04-04T05:55:37.826Z,54.80
2019-04-04T05:56:44.530Z,55.00
2019-04-04T05:57:50.945Z,54.80
2019-04-04T05:58:56.107Z,54.80
2019-04-04T06:00:01.216Z,55.00
2019-04-04T06:01:07.761Z,55.50
2019-04-04T06:02:13.711Z,55.60
2019-04-04T06:03:18.659Z,55.00
2019-04-04T06:04:23.950Z,55.00
2019-04-04T06:05:31.660Z,54.90
2019-04-04T06:06:36.407Z,54.20
2019-04-04T06:08:00.327Z,54.50
2019-04-04T06:09:07.099Z,54.50
2019-04-04T06:10:12.576Z,54.50
2019-04-04T06:11:20.965Z,54.30
2019-04-04T06:12:25.098Z,54.60
2019-04-04T06:13:30.845Z,54.50
2019-04-04T06:14:36.032Z,54.20
2019-04-04T06:15:41.128Z,54.90
2019-04-04T06:16:46.305Z,55.30
2019-04-04T06:17:51.309Z,54.80
2019-04-04T06:18:56.636Z,54.40
2019-04-04T06:20:02.146Z,53.90
2019-04-04T06:21:07.325Z,54.50
2019-04-04T06:22:12.429Z,54.00
2019-04-04T06:23:20.443Z,54.60
2019-04-04T06:24:25.211Z,54.30
2019-04-04T06:25:35.706Z,53.80
2019-04-04T06:26:38.837Z,54.20
2019-04-04T06:27:44.004Z,54.00
2019-04-04T06:28:49.551Z,53.90
2019-04-04T06:29:55.105Z,54.30
2019-04-04T06:31:00.883Z,54.30
2019-04-04T06:32:06.190Z,53.90
2019-04-04T06:33:12.706Z,53.90
2019-04-04T06:34:17.845Z,54.30
2019-04-04T06:35:22.938Z,54.00
2019-04-04T06:36:28.035Z,54.10
2019-04-04T06:37:34.297Z,54.70
2019-04-04T06:38:40.165Z,55.20
2019-04-04T06:39:45.900Z,55.30
2019-04-04T06:40:51.418Z,54.70
2019-04-04T06:41:57.072Z,54.60
2019-04-04T06:43:03.754Z,54.20
2019-04-04T06:44:09.112Z,54.60
2019-04-04T06:45:15.527Z,54.30
2019-04-04T06:46:22.881Z,54.10
2019-04-04T06:47:28.206Z,53.50
2019-04-04T06:48:33.785Z,54.00
2019-04-04T06:49:39.311Z,54.50
2019-04-04T06:50:44.451Z,53.70
2019-04-04T06:51:49.701Z,53.70
2019-04-04T06:52:57.010Z,54.30
2019-04-04T06:54:01.958Z,54.60
2019-04-04T06:55:07.533Z,53.80
2019-04-04T06:56:12.655Z,54.20
2019-04-04T06:57:17.679Z,54.00
2019-04-04T06:58:22.629Z,54.20
2019-04-04T06:59:27.531Z,54.90
2019-04-04T07:00:32.651Z,55.00
2019-04-04T07:01:37.967Z,54.20
2019-04-04T07:02:43.111Z,54.00
2019-04-04T07:03:48.125Z,55.20
2019-04-04T07:04:54.689Z,54.70
2019-04-04T07:05:59.784Z,54.70
2019-04-04T07:07:04.806Z,54.20
2019-04-04T07:08:09.817Z,53.80
2019-04-04T07:09:18.083Z,53.90
2019-04-04T07:10:22.099Z,54.20
2019-04-04T07:11:27.084Z,54.60
2019-04-04T07:12:32.172Z,54.30
2019-04-04T07:13:42.609Z,54.10
2019-04-04T07:14:45.994Z,54.60
2019-04-04T07:16:05.436Z,54.50
2019-04-04T07:16:57.894Z,53.80
2019-04-04T07:18:03.724Z,54.10
2019-04-04T07:19:14.311Z,54.00
2019-04-04T07:20:18.813Z,54.50
2019-04-04T07:21:27.284Z,54.60
2019-04-04T07:22:32.673Z,54.20
2019-04-04T07:23:37.781Z,54.00
2019-04-04T07:24:43.138Z,53.70
2019-04-04T07:25:48.248Z,54.60
2019-04-04T07:26:53.585Z,54.60
2019-04-04T07:28:00.986Z,54.10
2019-04-04T07:29:06.889Z,53.80
2019-04-04T07:30:15.290Z,53.40
2019-04-04T07:31:19.021Z,53.50
2019-04-04T07:32:24.160Z,54.60
2019-04-04T07:33:29.478Z,54.90
2019-04-04T07:34:34.339Z,54.30
2019-04-04T07:35:41.423Z,54.30
2019-04-04T07:36:49.186Z,54.40
2019-04-04T07:37:57.485Z,54.20
2019-04-04T07:39:01.319Z,54.90
2019-04-04T07:40:06.805Z,55.10
2019-04-04T07:41:14.598Z,54.80
2019-04-04T07:42:18.530Z,54.40
2019-04-04T07:43:23.466Z,54.30
2019-04-04T07:44:28.293Z,54.50
2019-04-04T07:45:33.477Z,54.90
2019-04-04T07:46:40.775Z,54.30
2019-04-04T07:47:46.821Z,54.40
2019-04-04T07:48:52.282Z,54.90
2019-04-04T07:49:57.549Z,54.20
2019-04-04T07:51:02.570Z,53.90
2019-04-04T07:52:07.450Z,53.90
2019-04-04T07:53:12.536Z,53.70
2019-04-04T07:54:17.552Z,53.10
2019-04-04T07:55:22.477Z,53.20
2019-04-04T07:56:27.411Z,53.80
2019-04-04T07:57:32.456Z,54.10
2019-04-04T07:58:37.688Z,54.40
2019-04-04T07:59:43.569Z,53.90
2019-04-04T08:00:48.688Z,54.20
2019-04-04T08:01:53.868Z,52.90
2019-04-04T08:02:58.967Z,52.30
2019-04-04T08:04:08.722Z,52.50
2019-04-04T08:05:14.482Z,53.20
2019-04-04T08:06:22.025Z,53.40
2019-04-04T08:07:27.148Z,53.70
2019-04-04T08:08:32.292Z,53.60
2019-04-04T08:09:37.324Z,52.80
2019-04-04T08:10:42.128Z,54.20
2019-04-04T08:11:47.273Z,53.60
2019-04-04T08:12:53.754Z,53.40
2019-04-04T08:14:00.018Z,53.60
2019-04-04T08:15:05.695Z,53.10
2019-04-04T08:16:11.209Z,52.40
2019-04-04T08:17:18.933Z,52.10
2019-04-04T08:18:23.839Z,52.30
2019-04-04T08:19:28.813Z,52.20
2019-04-04T08:20:34.114Z,52.90
2019-04-04T08:21:39.129Z,52.60
2019-04-04T08:22:44.103Z,51.80
2019-04-04T08:23:49.267Z,51.90
2019-04-04T08:24:54.554Z,51.70
2019-04-04T08:26:02.718Z,52.50
2019-04-04T08:27:07.867Z,52.20
2019-04-04T08:28:13.376Z,52.80
2019-04-04T08:29:18.487Z,52.30
2019-04-04T08:30:23.817Z,52.80
2019-04-04T08:31:28.861Z,52.30
2019-04-04T08:32:33.675Z,51.30
2019-04-04T08:33:38.852Z,51.00
2019-04-04T08:34:43.759Z,50.80
2019-04-04T08:35:48.937Z,50.80
2019-04-04T08:36:53.959Z,51.00
2019-04-04T08:37:58.844Z,51.30
2019-04-04T08:39:06.904Z,50.80
2019-04-04T08:40:15.731Z,51.00
2019-04-04T08:41:23.106Z,50.80
2019-04-04T08:42:28.468Z,50.10
2019-04-04T08:43:33.627Z,50.50
2019-04-04T08:44:39.143Z,50.80
2019-04-04T08:45:48.236Z,51.60
2019-04-04T08:46:55.627Z,51.30
2019-04-04T08:48:00.196Z,50.60
2019-04-04T08:49:05.363Z,50.40
2019-04-04T08:50:10.712Z,50.60
2019-04-04T08:51:15.681Z,51.20
2019-04-04T08:52:20.941Z,50.70
2019-04-04T08:53:38.945Z,50.70
2019-04-04T08:54:32.792Z,51.50
2019-04-04T08:55:38.128Z,51.00
2019-04-04T08:56:43.475Z,50.10
2019-04-04T08:57:48.710Z,50.30
2019-04-04T08:58:53.759Z,50.70
2019-04-04T08:59:58.729Z,49.70
2019-04-04T09:01:05.251Z,50.00
2019-04-04T09:02:10.274Z,49.90
2019-04-04T09:03:15.456Z,51.30
2019-04-04T09:04:20.576Z,50.00
2019-04-04T09:05:25.630Z,49.90
2019-04-04T09:06:30.828Z,49.80
2019-04-04T09:07:35.903Z,49.50
2019-04-04T09:08:41.029Z,49.40
2019-04-04T09:09:46.016Z,49.40
2019-04-04T09:10:51.315Z,49.90
2019-04-04T09:11:56.404Z,50.10
2019-04-04T09:13:01.548Z,49.80
2019-04-04T09:14:06.909Z,49.40
2019-04-04T09:15:12.107Z,50.20
2019-04-04T09:16:17.119Z,49.80
2019-04-04T09:17:23.166Z,49.70
2019-04-04T09:18:29.013Z,49.70
2019-04-04T09:19:34.061Z,49.70
2019-04-04T09:20:39.204Z,50.20
2019-04-04T09:21:44.509Z,49.30
2019-04-04T09:22:54.247Z,50.00
2019-04-04T09:24:00.678Z,50.00
2019-04-04T09:25:06.846Z,49.10
2019-04-04T09:26:12.306Z,49.50
2019-04-04T09:27:17.630Z,50.00
2019-04-04T09:28:23.963Z,49.40
2019-04-04T09:29:29.119Z,50.20
2019-04-04T09:30:34.542Z,49.30
2019-04-04T09:31:39.658Z,49.20
2019-04-04T09:32:44.603Z,49.00
2019-04-04T09:33:49.653Z,48.80
2019-04-04T09:34:57.400Z,48.30
2019-04-04T09:36:02.672Z,48.20
2019-04-04T09:37:08.853Z,48.30
2019-04-04T09:38:14.203Z,48.80
2019-04-04T09:39:19.542Z,49.40
2019-04-04T09:40:24.680Z,49.30
2019-04-04T09:41:31.268Z,49.40
2019-04-04T09:42:36.753Z,50.10
2019-04-04T09:43:41.878Z,48.50
2019-04-04T09:44:46.817Z,49.30
2019-04-04T09:45:51.819Z,49.70
2019-04-04T09:47:05.413Z,48.70
2019-04-04T09:48:03.651Z,49.30
2019-04-04T09:49:08.827Z,48.60
2019-04-04T09:50:14.657Z,48.80
2019-04-04T09:51:20.090Z,49.30
2019-04-04T09:52:24.971Z,48.70
2019-04-04T09:53:30.350Z,48.70
2019-04-04T09:54:36.442Z,48.20
2019-04-04T09:55:41.456Z,48.40
2019-04-04T09:56:46.596Z,48.90
2019-04-04T09:57:51.754Z,49.30
2019-04-04T09:58:57.190Z,48.40
2019-04-04T10:00:02.150Z,48.40
2019-04-04T10:01:07.661Z,48.40
2019-04-04T10:02:12.677Z,47.70
2019-04-04T10:03:17.848Z,48.40
2019-04-04T10:04:25.586Z,48.30
2019-04-04T10:05:32.020Z,46.90
2019-04-04T10:06:36.989Z,47.70
2019-04-04T10:07:42.587Z,47.40
2019-04-04T10:08:47.519Z,47.30
2019-04-04T10:09:52.547Z,46.90
2019-04-04T10:10:57.715Z,47.60
2019-04-04T10:12:05.881Z,49.00
2019-04-04T10:13:11.054Z,48.70
2019-04-04T10:14:15.978Z,47.50
2019-04-04T10:15:21.332Z,47.00
2019-04-04T10:16:26.297Z,47.20
2019-04-04T10:17:31.349Z,47.20
2019-04-04T10:18:37.713Z,46.90
2019-04-04T10:19:42.869Z,47.00
2019-04-04T10:20:51.699Z,46.90
2019-04-04T10:21:56.645Z,47.00
2019-04-04T10:23:01.751Z,47.10
2019-04-04T10:24:07.100Z,48.00
2019-04-04T10:25:12.355Z,48.00
2019-04-04T10:26:17.678Z,46.80
2019-04-04T10:27:23.307Z,46.50
2019-04-04T10:28:28.410Z,46.80
2019-04-04T10:29:33.393Z,46.80
2019-04-04T10:30:38.668Z,46.30
2019-04-04T10:31:43.704Z,47.50
2019-04-04T10:32:48.619Z,46.40
2019-04-04T10:33:53.602Z,46.20
2019-04-04T10:34:58.724Z,46.00
2019-04-04T10:36:03.986Z,46.50
2019-04-04T10:37:09.480Z,46.80
2019-04-04T10:38:14.542Z,47.00
2019-04-04T10:39:28.671Z,46.60
2019-04-04T10:40:26.309Z,46.40
2019-04-04T10:41:32.993Z,47.20
2019-04-04T10:42:38.127Z,47.10
2019-04-04T10:43:43.347Z,46.50
2019-04-04T10:44:48.589Z,47.20
2019-04-04T10:45:53.580Z,46.90
2019-04-04T10:46:58.672Z,46.60
2019-04-04T10:48:03.745Z,46.40
2019-04-04T10:49:08.773Z,46.70
2019-04-04T10:50:14.371Z,46.80
2019-04-04T10:51:19.407Z,47.70
2019-04-04T10:52:26.987Z,46.50
2019-04-04T10:53:32.484Z,45.80
2019-04-04T10:54:37.664Z,46.40
2019-04-04T10:55:42.722Z,46.50
2019-04-04T10:56:48.064Z,46.40
2019-04-04T10:57:53.179Z,45.90
2019-04-04T10:58:58.252Z,45.80
2019-04-04T11:00:03.505Z,45.60
2019-04-04T11:01:08.901Z,44.70
2019-04-04T11:02:14.080Z,43.50
2019-04-04T11:03:18.960Z,43.20
2019-04-04T11:04:24.252Z,42.90
2019-04-04T11:05:29.464Z,42.30
2019-04-04T11:06:34.722Z,42.70
2019-04-04T11:07:40.402Z,42.80
2019-04-04T11:08:46.039Z,42.30
2019-04-04T11:09:51.210Z,42.00
2019-04-04T11:10:58.859Z,42.00
2019-04-04T11:12:03.157Z,41.10
2019-04-04T11:13:08.241Z,40.60
2019-04-04T11:14:13.526Z,40.80
2019-04-04T11:15:18.906Z,40.30
2019-04-04T11:16:29.939Z,41.30
2019-04-04T11:17:33.279Z,40.30
2019-04-04T11:18:38.778Z,40.40
2019-04-04T11:19:43.879Z,40.70
2019-04-04T11:20:49.288Z,40.00
2019-04-04T11:21:54.472Z,39.50
2019-04-04T11:22:59.960Z,39.90
2019-04-04T11:24:05.526Z,39.80
2019-04-04T11:25:12.216Z,40.00
2019-04-04T11:26:17.804Z,39.10
2019-04-04T11:27:23.060Z,39.00
2019-04-04T11:28:28.570Z,39.40
2019-04-04T11:29:33.823Z,39.00
2019-04-04T11:30:39.182Z,39.20
2019-04-04T11:31:44.591Z,38.70
2019-04-04T11:32:49.959Z,38.40
2019-04-04T11:33:54.961Z,37.90
2019-04-04T11:35:00.196Z,38.30
2019-04-04T11:36:05.315Z,38.70
2019-04-04T11:37:10.850Z,37.40
2019-04-04T11:38:15.992Z,37.20
2019-04-04T11:39:21.140Z,37.60
2019-04-04T11:40:26.580Z,37.20
2019-04-04T11:41:31.726Z,36.40
2019-04-04T11:42:38.342Z,37.10
2019-04-04T11:43:44.890Z,37.50
2019-04-04T11:44:49.828Z,37.20
2019-04-04T11:45:54.796Z,36.50
2019-04-04T11:46:59.901Z,37.30
2019-04-04T11:48:05.033Z,37.90
2019-04-04T11:49:10.283Z,37.30
2019-04-04T11:50:15.563Z,37.10
2019-04-04T11:51:20.771Z,37.50
2019-04-04T11:52:25.835Z,37.90
2019-04-04T11:53:30.909Z,38.20
2019-04-04T11:54:54.993Z,38.30
2019-04-04T11:56:00.568Z,39.00
2019-04-04T11:57:06.228Z,39.00
2019-04-04T11:58:11.457Z,38.90
2019-04-04T11:59:17.011Z,39.70
2019-04-04T12:00:36.515Z,39.70
2019-04-04T12:01:42.738Z,38.80
2019-04-04T12:02:47.868Z,39.10
2019-04-04T12:03:52.839Z,37.90
2019-04-04T12:04:58.183Z,38.30
2019-04-04T12:06:03.355Z,37.90
2019-04-04T12:07:11.541Z,38.00
2019-04-04T12:08:19.241Z,37.50
2019-04-04T12:09:24.530Z,37.80
2019-04-04T12:10:29.838Z,37.30
2019-04-04T12:11:34.979Z,37.60
2019-04-04T12:12:40.345Z,37.70
2019-04-04T12:13:45.784Z,38.30
2019-04-04T12:14:50.966Z,38.00
2019-04-04T12:15:55.993Z,38.30
2019-04-04T12:17:01.501Z,38.20
2019-04-04T12:18:06.594Z,38.00
2019-04-04T12:19:11.745Z,37.70
2019-04-04T12:20:16.884Z,37.60
2019-04-04T12:21:24.530Z,37.50
2019-04-04T12:22:29.694Z,37.30
2019-04-04T12:23:34.941Z,37.80
2019-04-04T12:24:42.870Z,37.90
2019-04-04T12:25:48.385Z,38.70
2019-04-04T12:26:53.744Z,38.60
2019-04-04T12:27:59.194Z,38.60
2019-04-04T12:29:04.492Z,37.70
2019-04-04T12:30:10.896Z,37.30
2019-04-04T12:31:15.808Z,36.80
2019-04-04T12:32:20.792Z,36.60
2019-04-04T12:33:25.838Z,36.20
2019-04-04T12:34:30.925Z,37.30
2019-04-04T12:35:36.018Z,36.20
2019-04-04T12:36:41.156Z,36.00
2019-04-04T12:37:46.641Z,36.00
2019-04-04T12:38:51.925Z,36.70
2019-04-04T12:39:56.950Z,36.40
2019-04-04T12:41:02.025Z,36.40
2019-04-04T12:42:07.157Z,36.60
2019-04-04T12:43:12.113Z,36.60
2019-04-04T12:44:19.997Z,36.50
2019-04-04T12:45:28.225Z,36.20
2019-04-04T12:46:33.316Z,35.30
2019-04-04T12:47:39.166Z,35.20
2019-04-04T12:48:44.503Z,35.00
2019-04-04T12:49:49.658Z,34.50
2019-04-04T12:50:55.121Z,34.40
2019-04-04T12:52:04.813Z,35.10
2019-04-04T12:53:10.128Z,34.00
2019-04-04T12:54:15.321Z,34.30
2019-04-04T12:55:20.563Z,34.30
2019-04-04T12:56:25.977Z,34.30
2019-04-04T12:57:32.188Z,34.20
2019-04-04T12:58:38.007Z,33.80
2019-04-04T12:59:43.057Z,33.60
2019-04-04T13:00:59.185Z,33.70
2019-04-04T13:02:04.397Z,33.20
2019-04-04T13:03:09.585Z,33.50
2019-04-04T13:04:15.073Z,33.00
2019-04-04T13:05:20.448Z,33.70
2019-04-04T13:06:25.542Z,34.00
2019-04-04T13:07:30.729Z,35.00
2019-04-04T13:08:35.894Z,34.50
2019-04-04T13:09:41.620Z,35.20
2019-04-04T13:10:47.010Z,36.00
2019-04-04T13:11:51.939Z,36.70
2019-04-04T13:12:56.852Z,35.70
2019-04-04T13:14:02.153Z,35.00
2019-04-04T13:15:08.342Z,34.90
2019-04-04T13:16:13.484Z,34.30
2019-04-04T13:17:18.904Z,35.30
2019-04-04T13:18:24.215Z,34.90
2019-04-04T13:19:29.414Z,35.00
2019-04-04T13:20:34.693Z,34.40
2019-04-04T13:21:40.173Z,34.30
2019-04-04T13:22:45.465Z,34.60
2019-04-04T13:23:50.857Z,33.90
2019-04-04T13:24:56.056Z,34.00
2019-04-04T13:26:01.228Z,33.80
2019-04-04T13:27:06.532Z,33.80
2019-04-04T13:28:11.784Z,33.50
2019-04-04T13:29:16.811Z,33.30
2019-04-04T13:30:22.093Z,33.00
2019-04-04T13:31:27.196Z,33.30
2019-04-04T13:32:32.482Z,32.00
2019-04-04T13:33:37.593Z,31.80
2019-04-04T13:34:42.662Z,31.80
2019-04-04T13:35:50.563Z,31.20
2019-04-04T13:36:55.733Z,31.70
2019-04-04T13:38:03.171Z,31.30
2019-04-04T13:39:13.374Z,31.10
2019-04-04T13:40:18.414Z,32.30
2019-04-04T13:41:23.210Z,31.30
2019-04-04T13:42:28.231Z,31.30
2019-04-04T13:43:33.203Z,31.50
2019-04-04T13:44:38.410Z,31.30
2019-04-04T13:45:43.254Z,31.60
2019-04-04T13:46:48.242Z,31.60
2019-04-04T13:47:53.053Z,32.00
2019-04-04T13:48:57.930Z,32.00
2019-04-04T13:50:08.126Z,31.50
2019-04-04T13:51:13.082Z,31.10
2019-04-04T13:52:18.036Z,31.20
2019-04-04T13:53:25.257Z,30.50
2019-04-04T13:54:29.750Z,30.70
2019-04-04T13:55:34.574Z,30.90
2019-04-04T13:56:39.428Z,31.00
2019-04-04T13:57:47.297Z,31.30
2019-04-04T13:58:50.878Z,30.50
2019-04-04T13:59:56.248Z,30.20
2019-04-04T14:01:01.348Z,30.40
2019-04-04T14:02:06.312Z,30.30
2019-04-04T14:03:43.449Z,30.50
2019-04-04T14:04:48.324Z,30.30